sensor_id;sensor_type;location;lat;lon;timestamp;P1;durP1;ratioP1;P2;durP2;ratioP2
73850;SDS011;62190;51.548;5.688;2023-04-15T00:00:42;13.80;;;7.25;;
73850;SDS011;62190;51.548;5.688;2023-04-15T00:03:10;11.35;;;7.60;;
73850;SDS011;62190;51.548;5.688;2023-04-15T00:05:37;11.25;;;7.47;;
73850;SDS011;62190;51.548;5.688;2023-04-15T00:08:07;12.25;;;7.58;;
73850;SDS011;62190;51.548;5.688;2023-04-15T00:10:34;11.05;;;6.97;;
73850;SDS011;62190;51.548;5.688;2023-04-15T00:13:01;13.05;;;7.35;;
73850;SDS011;62190;51.548;5.688;2023-04-15T00:15:29;15.53;;;8.23;;
73850;SDS011;62190;51.548;5.688;2023-04-15T00:17:57;9.73;;;7.03;;
73850;SDS011;62190;51.548;5.688;2023-04-15T00:20:24;17.62;;;7.85;;
73850;SDS011;62190;51.548;5.688;2023-04-15T00:22:51;13.20;;;7.92;;
73850;SDS011;62190;51.548;5.688;2023-04-15T00:25:19;13.60;;;7.50;;
73850;SDS011;62190;51.548;5.688;2023-04-15T00:27:46;13.32;;;8.20;;
73850;SDS011;62190;51.548;5.688;2023-04-15T00:30:14;13.15;;;7.28;;
73850;SDS011;62190;51.548;5.688;2023-04-15T00:32:41;15.45;;;7.30;;
73850;SDS011;62190;51.548;5.688;2023-04-15T00:35:10;11.88;;;7.17;;
73850;SDS011;62190;51.548;5.688;2023-04-15T00:37:40;12.28;;;7.70;;
73850;SDS011;62190;51.548;5.688;2023-04-15T00:40:09;11.25;;;7.62;;
73850;SDS011;62190;51.548;5.688;2023-04-15T00:42:38;14.15;;;8.13;;
73850;SDS011;62190;51.548;5.688;2023-04-15T00:45:07;11.85;;;7.80;;
73850;SDS011;62190;51.548;5.688;2023-04-15T00:47:36;14.20;;;7.20;;
73850;SDS011;62190;51.548;5.688;2023-04-15T00:50:07;16.10;;;7.33;;
73850;SDS011;62190;51.548;5.688;2023-04-15T00:52:35;15.50;;;7.78;;
73850;SDS011;62190;51.548;5.688;2023-04-15T00:55:02;13.45;;;8.23;;
73850;SDS011;62190;51.548;5.688;2023-04-15T00:57:30;14.35;;;8.08;;
73850;SDS011;62190;51.548;5.688;2023-04-15T00:59:59;12.85;;;8.05;;
73850;SDS011;62190;51.548;5.688;2023-04-15T01:02:28;15.53;;;7.97;;
73850;SDS011;62190;51.548;5.688;2023-04-15T01:04:59;11.57;;;8.00;;
73850;SDS011;62190;51.548;5.688;2023-04-15T01:07:26;13.68;;;7.60;;
73850;SDS011;62190;51.548;5.688;2023-04-15T01:09:54;15.43;;;9.25;;
73850;SDS011;62190;51.548;5.688;2023-04-15T01:12:21;13.88;;;7.85;;
73850;SDS011;62190;51.548;5.688;2023-04-15T01:14:50;13.62;;;8.13;;
73850;SDS011;62190;51.548;5.688;2023-04-15T01:17:20;16.62;;;8.35;;
73850;SDS011;62190;51.548;5.688;2023-04-15T01:19:47;13.32;;;8.63;;
73850;SDS011;62190;51.548;5.688;2023-04-15T01:22:15;13.98;;;8.23;;
73850;SDS011;62190;51.548;5.688;2023-04-15T01:24:47;16.82;;;8.78;;
73850;SDS011;62190;51.548;5.688;2023-04-15T01:27:16;16.27;;;10.03;;
73850;SDS011;62190;51.548;5.688;2023-04-15T01:29:44;15.95;;;8.88;;
73850;SDS011;62190;51.548;5.688;2023-04-15T01:32:12;15.23;;;10.00;;
73850;SDS011;62190;51.548;5.688;2023-04-15T01:34:40;19.55;;;10.15;;
73850;SDS011;62190;51.548;5.688;2023-04-15T01:37:07;17.32;;;9.58;;
73850;SDS011;62190;51.548;5.688;2023-04-15T01:39:35;13.80;;;8.53;;
73850;SDS011;62190;51.548;5.688;2023-04-15T01:42:02;15.35;;;9.25;;
73850;SDS011;62190;51.548;5.688;2023-04-15T01:44:29;15.25;;;9.23;;
73850;SDS011;62190;51.548;5.688;2023-04-15T01:46:58;11.40;;;8.43;;
73850;SDS011;62190;51.548;5.688;2023-04-15T01:49:25;15.90;;;9.53;;
73850;SDS011;62190;51.548;5.688;2023-04-15T01:51:52;16.40;;;9.70;;
73850;SDS011;62190;51.548;5.688;2023-04-15T01:54:21;18.15;;;10.95;;
73850;SDS011;62190;51.548;5.688;2023-04-15T01:56:48;15.88;;;10.43;;
73850;SDS011;62190;51.548;5.688;2023-04-15T01:59:16;20.68;;;10.43;;
73850;SDS011;62190;51.548;5.688;2023-04-15T02:01:43;16.95;;;10.40;;
73850;SDS011;62190;51.548;5.688;2023-04-15T02:04:11;15.20;;;9.63;;
73850;SDS011;62190;51.548;5.688;2023-04-15T02:06:45;15.95;;;10.10;;
73850;SDS011;62190;51.548;5.688;2023-04-15T02:09:09;15.98;;;10.28;;
73850;SDS011;62190;51.548;5.688;2023-04-15T02:11:37;18.02;;;9.98;;
73850;SDS011;62190;51.548;5.688;2023-04-15T02:14:05;14.78;;;9.85;;
73850;SDS011;62190;51.548;5.688;2023-04-15T02:16:32;18.35;;;9.58;;
73850;SDS011;62190;51.548;5.688;2023-04-15T02:18:59;14.70;;;8.58;;
73850;SDS011;62190;51.548;5.688;2023-04-15T02:21:28;11.43;;;7.75;;
73850;SDS011;62190;51.548;5.688;2023-04-15T02:23:56;13.28;;;9.13;;
73850;SDS011;62190;51.548;5.688;2023-04-15T02:26:23;13.03;;;8.23;;
73850;SDS011;62190;51.548;5.688;2023-04-15T02:28:50;17.17;;;9.48;;
73850;SDS011;62190;51.548;5.688;2023-04-15T02:31:18;15.32;;;8.18;;
73850;SDS011;62190;51.548;5.688;2023-04-15T02:33:46;11.78;;;7.92;;
73850;SDS011;62190;51.548;5.688;2023-04-15T02:36:13;18.27;;;8.95;;
73850;SDS011;62190;51.548;5.688;2023-04-15T02:38:41;14.53;;;9.30;;
73850;SDS011;62190;51.548;5.688;2023-04-15T02:41:08;17.48;;;9.05;;
73850;SDS011;62190;51.548;5.688;2023-04-15T02:43:36;13.00;;;8.85;;
73850;SDS011;62190;51.548;5.688;2023-04-15T02:46:04;14.00;;;9.18;;
73850;SDS011;62190;51.548;5.688;2023-04-15T02:48:32;15.78;;;9.30;;
73850;SDS011;62190;51.548;5.688;2023-04-15T02:51:12;17.52;;;9.50;;
73850;SDS011;62190;51.548;5.688;2023-04-15T02:53:40;15.70;;;8.98;;
73850;SDS011;62190;51.548;5.688;2023-04-15T02:56:09;16.80;;;10.23;;
73850;SDS011;62190;51.548;5.688;2023-04-15T02:58:38;15.63;;;9.90;;
73850;SDS011;62190;51.548;5.688;2023-04-15T03:01:06;19.30;;;10.05;;
73850;SDS011;62190;51.548;5.688;2023-04-15T03:03:34;18.60;;;11.10;;
73850;SDS011;62190;51.548;5.688;2023-04-15T03:06:01;14.83;;;9.20;;
73850;SDS011;62190;51.548;5.688;2023-04-15T03:08:30;16.75;;;9.93;;
73850;SDS011;62190;51.548;5.688;2023-04-15T03:10:58;13.88;;;10.05;;
73850;SDS011;62190;51.548;5.688;2023-04-15T03:13:28;15.70;;;9.98;;
73850;SDS011;62190;51.548;5.688;2023-04-15T03:15:55;20.77;;;10.38;;
73850;SDS011;62190;51.548;5.688;2023-04-15T03:18:23;17.90;;;9.50;;
73850;SDS011;62190;51.548;5.688;2023-04-15T03:20:50;22.55;;;10.30;;
73850;SDS011;62190;51.548;5.688;2023-04-15T03:23:17;15.08;;;10.13;;
73850;SDS011;62190;51.548;5.688;2023-04-15T03:25:46;17.87;;;10.40;;
73850;SDS011;62190;51.548;5.688;2023-04-15T03:28:13;17.45;;;9.95;;
73850;SDS011;62190;51.548;5.688;2023-04-15T03:30:41;16.70;;;10.75;;
73850;SDS011;62190;51.548;5.688;2023-04-15T03:33:08;15.10;;;9.90;;
73850;SDS011;62190;51.548;5.688;2023-04-15T03:35:35;16.90;;;9.78;;
73850;SDS011;62190;51.548;5.688;2023-04-15T03:38:03;18.02;;;9.88;;
73850;SDS011;62190;51.548;5.688;2023-04-15T03:40:31;14.90;;;9.58;;
73850;SDS011;62190;51.548;5.688;2023-04-15T03:42:58;16.25;;;9.73;;
73850;SDS011;62190;51.548;5.688;2023-04-15T03:45:26;14.35;;;9.85;;
73850;SDS011;62190;51.548;5.688;2023-04-15T03:47:53;15.48;;;9.28;;
73850;SDS011;62190;51.548;5.688;2023-04-15T03:50:20;18.87;;;10.15;;
73850;SDS011;62190;51.548;5.688;2023-04-15T03:52:48;17.77;;;10.63;;
73850;SDS011;62190;51.548;5.688;2023-04-15T03:55:15;14.68;;;9.95;;
73850;SDS011;62190;51.548;5.688;2023-04-15T03:57:43;13.65;;;10.15;;
73850;SDS011;62190;51.548;5.688;2023-04-15T04:00:10;15.53;;;9.90;;
73850;SDS011;62190;51.548;5.688;2023-04-15T04:02:38;19.50;;;10.25;;
73850;SDS011;62190;51.548;5.688;2023-04-15T04:05:06;17.02;;;10.43;;
73850;SDS011;62190;51.548;5.688;2023-04-15T04:07:34;15.90;;;9.43;;
73850;SDS011;62190;51.548;5.688;2023-04-15T04:10:01;16.82;;;9.55;;
73850;SDS011;62190;51.548;5.688;2023-04-15T04:12:29;14.30;;;10.05;;
73850;SDS011;62190;51.548;5.688;2023-04-15T04:14:56;16.60;;;9.93;;
73850;SDS011;62190;51.548;5.688;2023-04-15T04:17:23;14.63;;;9.88;;
73850;SDS011;62190;51.548;5.688;2023-04-15T04:19:51;16.90;;;10.28;;
73850;SDS011;62190;51.548;5.688;2023-04-15T04:22:21;18.48;;;10.95;;
73850;SDS011;62190;51.548;5.688;2023-04-15T04:24:49;21.35;;;11.20;;
73850;SDS011;62190;51.548;5.688;2023-04-15T04:27:19;19.65;;;11.50;;
73850;SDS011;62190;51.548;5.688;2023-04-15T04:29:46;18.80;;;12.00;;
73850;SDS011;62190;51.548;5.688;2023-04-15T04:32:14;16.05;;;10.48;;
73850;SDS011;62190;51.548;5.688;2023-04-15T04:34:41;16.52;;;10.48;;
73850;SDS011;62190;51.548;5.688;2023-04-15T04:37:09;20.02;;;10.82;;
73850;SDS011;62190;51.548;5.688;2023-04-15T04:39:36;20.97;;;11.97;;
73850;SDS011;62190;51.548;5.688;2023-04-15T04:42:03;18.98;;;11.05;;
73850;SDS011;62190;51.548;5.688;2023-04-15T04:44:35;17.75;;;11.18;;
73850;SDS011;62190;51.548;5.688;2023-04-15T04:47:02;22.67;;;11.93;;
73850;SDS011;62190;51.548;5.688;2023-04-15T04:49:33;19.60;;;12.43;;
73850;SDS011;62190;51.548;5.688;2023-04-15T04:52:00;15.08;;;10.65;;
73850;SDS011;62190;51.548;5.688;2023-04-15T04:54:29;16.73;;;11.45;;
73850;SDS011;62190;51.548;5.688;2023-04-15T04:56:56;20.05;;;11.63;;
73850;SDS011;62190;51.548;5.688;2023-04-15T04:59:23;19.80;;;12.05;;
73850;SDS011;62190;51.548;5.688;2023-04-15T05:01:50;19.02;;;11.90;;
73850;SDS011;62190;51.548;5.688;2023-04-15T05:04:18;19.42;;;11.68;;
73850;SDS011;62190;51.548;5.688;2023-04-15T05:06:45;16.93;;;11.25;;
73850;SDS011;62190;51.548;5.688;2023-04-15T05:09:14;19.87;;;11.15;;
73850;SDS011;62190;51.548;5.688;2023-04-15T05:11:41;18.05;;;11.40;;
73850;SDS011;62190;51.548;5.688;2023-04-15T05:14:09;15.83;;;10.55;;
73850;SDS011;62190;51.548;5.688;2023-04-15T05:16:36;18.62;;;11.40;;
73850;SDS011;62190;51.548;5.688;2023-04-15T05:19:03;20.02;;;10.85;;
73850;SDS011;62190;51.548;5.688;2023-04-15T05:21:32;20.32;;;11.88;;
73850;SDS011;62190;51.548;5.688;2023-04-15T05:23:59;20.75;;;10.70;;
73850;SDS011;62190;51.548;5.688;2023-04-15T05:26:26;16.30;;;9.68;;
73850;SDS011;62190;51.548;5.688;2023-04-15T05:28:54;16.70;;;11.35;;
73850;SDS011;62190;51.548;5.688;2023-04-15T05:31:24;16.60;;;9.65;;
73850;SDS011;62190;51.548;5.688;2023-04-15T05:33:51;14.35;;;8.30;;
73850;SDS011;62190;51.548;5.688;2023-04-15T05:36:18;14.15;;;9.30;;
73850;SDS011;62190;51.548;5.688;2023-04-15T05:38:47;13.75;;;8.55;;
73850;SDS011;62190;51.548;5.688;2023-04-15T05:41:14;13.35;;;9.35;;
73850;SDS011;62190;51.548;5.688;2023-04-15T05:43:42;11.57;;;7.80;;
73850;SDS011;62190;51.548;5.688;2023-04-15T05:46:09;14.13;;;8.45;;
73850;SDS011;62190;51.548;5.688;2023-04-15T05:48:36;12.60;;;8.60;;
73850;SDS011;62190;51.548;5.688;2023-04-15T05:51:06;13.15;;;8.73;;
73850;SDS011;62190;51.548;5.688;2023-04-15T05:53:34;14.58;;;9.68;;
73850;SDS011;62190;51.548;5.688;2023-04-15T05:56:01;14.43;;;9.33;;
73850;SDS011;62190;51.548;5.688;2023-04-15T05:58:29;14.33;;;8.78;;
73850;SDS011;62190;51.548;5.688;2023-04-15T06:00:56;14.58;;;9.58;;
73850;SDS011;62190;51.548;5.688;2023-04-15T06:03:23;14.53;;;9.00;;
73850;SDS011;62190;51.548;5.688;2023-04-15T06:05:50;13.78;;;9.30;;
73850;SDS011;62190;51.548;5.688;2023-04-15T06:08:18;10.85;;;8.43;;
73850;SDS011;62190;51.548;5.688;2023-04-15T06:10:46;12.55;;;7.87;;
73850;SDS011;62190;51.548;5.688;2023-04-15T06:13:14;10.50;;;7.37;;
73850;SDS011;62190;51.548;5.688;2023-04-15T06:15:41;11.03;;;8.20;;
73850;SDS011;62190;51.548;5.688;2023-04-15T06:18:08;11.90;;;7.80;;
73850;SDS011;62190;51.548;5.688;2023-04-15T06:20:36;11.08;;;7.28;;
73850;SDS011;62190;51.548;5.688;2023-04-15T06:23:03;11.65;;;7.85;;
73850;SDS011;62190;51.548;5.688;2023-04-15T06:25:31;13.08;;;8.35;;
73850;SDS011;62190;51.548;5.688;2023-04-15T06:27:58;11.97;;;8.38;;
73850;SDS011;62190;51.548;5.688;2023-04-15T06:30:25;14.90;;;8.85;;
73850;SDS011;62190;51.548;5.688;2023-04-15T06:32:54;14.43;;;9.28;;
73850;SDS011;62190;51.548;5.688;2023-04-15T06:35:21;13.70;;;9.33;;
73850;SDS011;62190;51.548;5.688;2023-04-15T06:37:49;14.83;;;8.08;;
73850;SDS011;62190;51.548;5.688;2023-04-15T06:40:16;13.88;;;8.58;;
73850;SDS011;62190;51.548;5.688;2023-04-15T06:42:43;13.70;;;8.83;;
73850;SDS011;62190;51.548;5.688;2023-04-15T06:45:11;14.33;;;9.25;;
73850;SDS011;62190;51.548;5.688;2023-04-15T06:47:38;10.08;;;7.87;;
73850;SDS011;62190;51.548;5.688;2023-04-15T06:50:06;11.55;;;7.92;;
73850;SDS011;62190;51.548;5.688;2023-04-15T06:52:34;10.88;;;8.20;;
73850;SDS011;62190;51.548;5.688;2023-04-15T06:55:02;13.65;;;8.13;;
73850;SDS011;62190;51.548;5.688;2023-04-15T06:57:29;15.32;;;9.00;;
73850;SDS011;62190;51.548;5.688;2023-04-15T06:59:57;14.00;;;9.08;;
73850;SDS011;62190;51.548;5.688;2023-04-15T07:02:25;11.48;;;8.30;;
73850;SDS011;62190;51.548;5.688;2023-04-15T07:04:52;13.58;;;8.90;;
73850;SDS011;62190;51.548;5.688;2023-04-15T07:07:20;13.38;;;8.65;;
73850;SDS011;62190;51.548;5.688;2023-04-15T07:09:47;12.20;;;8.38;;
73850;SDS011;62190;51.548;5.688;2023-04-15T07:12:15;11.38;;;8.25;;
73850;SDS011;62190;51.548;5.688;2023-04-15T07:14:42;10.53;;;7.90;;
73850;SDS011;62190;51.548;5.688;2023-04-15T07:17:09;13.53;;;9.30;;
73850;SDS011;62190;51.548;5.688;2023-04-15T07:19:37;11.68;;;8.28;;
73850;SDS011;62190;51.548;5.688;2023-04-15T07:22:05;11.05;;;8.00;;
73850;SDS011;62190;51.548;5.688;2023-04-15T07:24:33;10.60;;;7.90;;
73850;SDS011;62190;51.548;5.688;2023-04-15T07:27:01;11.57;;;8.23;;
73850;SDS011;62190;51.548;5.688;2023-04-15T07:29:28;11.75;;;8.20;;
73850;SDS011;62190;51.548;5.688;2023-04-15T07:31:55;12.55;;;7.83;;
73850;SDS011;62190;51.548;5.688;2023-04-15T07:34:23;12.20;;;8.18;;
73850;SDS011;62190;51.548;5.688;2023-04-15T07:36:50;10.50;;;7.83;;
73850;SDS011;62190;51.548;5.688;2023-04-15T07:39:17;9.35;;;7.10;;
73850;SDS011;62190;51.548;5.688;2023-04-15T07:41:45;12.35;;;7.85;;
73850;SDS011;62190;51.548;5.688;2023-04-15T07:44:13;10.08;;;7.70;;
73850;SDS011;62190;51.548;5.688;2023-04-15T07:46:41;12.55;;;8.15;;
73850;SDS011;62190;51.548;5.688;2023-04-15T07:49:08;11.95;;;8.18;;
73850;SDS011;62190;51.548;5.688;2023-04-15T07:51:35;13.45;;;8.40;;
73850;SDS011;62190;51.548;5.688;2023-04-15T07:54:03;13.38;;;7.42;;
73850;SDS011;62190;51.548;5.688;2023-04-15T07:56:30;9.78;;;7.05;;
73850;SDS011;62190;51.548;5.688;2023-04-15T07:58:58;11.75;;;7.80;;
73850;SDS011;62190;51.548;5.688;2023-04-15T08:01:27;9.53;;;7.20;;
73850;SDS011;62190;51.548;5.688;2023-04-15T08:03:54;9.75;;;6.67;;
73850;SDS011;62190;51.548;5.688;2023-04-15T08:06:22;9.18;;;6.12;;
73850;SDS011;62190;51.548;5.688;2023-04-15T08:08:49;9.38;;;6.45;;
73850;SDS011;62190;51.548;5.688;2023-04-15T08:11:17;10.20;;;6.05;;
73850;SDS011;62190;51.548;5.688;2023-04-15T08:13:46;9.73;;;6.78;;
73850;SDS011;62190;51.548;5.688;2023-04-15T08:16:21;9.50;;;7.00;;
73850;SDS011;62190;51.548;5.688;2023-04-15T08:18:49;8.40;;;5.97;;
73850;SDS011;62190;51.548;5.688;2023-04-15T08:21:18;10.10;;;5.87;;
73850;SDS011;62190;51.548;5.688;2023-04-15T08:23:46;8.68;;;5.72;;
73850;SDS011;62190;51.548;5.688;2023-04-15T08:26:15;9.20;;;6.00;;
73850;SDS011;62190;51.548;5.688;2023-04-15T08:28:43;9.45;;;5.97;;
73850;SDS011;62190;51.548;5.688;2023-04-15T08:31:11;7.35;;;5.22;;
73850;SDS011;62190;51.548;5.688;2023-04-15T08:33:42;7.58;;;5.75;;
73850;SDS011;62190;51.548;5.688;2023-04-15T08:36:09;7.65;;;5.78;;
73850;SDS011;62190;51.548;5.688;2023-04-15T08:38:38;8.53;;;5.35;;
73850;SDS011;62190;51.548;5.688;2023-04-15T08:41:16;8.18;;;5.50;;
73850;SDS011;62190;51.548;5.688;2023-04-15T08:43:51;8.28;;;5.33;;
73850;SDS011;62190;51.548;5.688;2023-04-15T08:46:23;9.28;;;6.03;;
73850;SDS011;62190;51.548;5.688;2023-04-15T08:48:51;10.23;;;6.58;;
73850;SDS011;62190;51.548;5.688;2023-04-15T08:51:22;9.75;;;6.62;;
73850;SDS011;62190;51.548;5.688;2023-04-15T08:53:50;8.20;;;5.95;;
73850;SDS011;62190;51.548;5.688;2023-04-15T08:58:50;10.53;;;6.30;;
73850;SDS011;62190;51.548;5.688;2023-04-15T09:01:18;7.65;;;5.20;;
73850;SDS011;62190;51.548;5.688;2023-04-15T09:03:47;7.08;;;5.45;;
73850;SDS011;62190;51.548;5.688;2023-04-15T09:06:18;8.58;;;5.97;;
73850;SDS011;62190;51.548;5.688;2023-04-15T09:08:46;7.12;;;4.95;;
73850;SDS011;62190;51.548;5.688;2023-04-15T09:11:13;6.80;;;4.70;;
73850;SDS011;62190;51.548;5.688;2023-04-15T09:13:42;7.03;;;3.33;;
73850;SDS011;62190;51.548;5.688;2023-04-15T09:16:09;4.60;;;3.20;;
73850;SDS011;62190;51.548;5.688;2023-04-15T09:18:38;5.75;;;3.55;;
73850;SDS011;62190;51.548;5.688;2023-04-15T09:23:36;3.83;;;2.77;;
73850;SDS011;62190;51.548;5.688;2023-04-15T09:26:05;4.33;;;3.02;;
73850;SDS011;62190;51.548;5.688;2023-04-15T09:28:33;4.97;;;3.30;;
73850;SDS011;62190;51.548;5.688;2023-04-15T09:31:03;5.15;;;3.60;;
73850;SDS011;62190;51.548;5.688;2023-04-15T09:33:30;6.20;;;3.87;;
73850;SDS011;62190;51.548;5.688;2023-04-15T09:35:59;5.17;;;3.45;;
73850;SDS011;62190;51.548;5.688;2023-04-15T09:38:28;4.92;;;3.90;;
73850;SDS011;62190;51.548;5.688;2023-04-15T09:40:56;6.28;;;4.67;;
73850;SDS011;62190;51.548;5.688;2023-04-15T09:43:39;4.85;;;3.58;;
73850;SDS011;62190;51.548;5.688;2023-04-15T09:46:06;6.58;;;3.27;;
73850;SDS011;62190;51.548;5.688;2023-04-15T09:48:33;6.45;;;3.85;;
73850;SDS011;62190;51.548;5.688;2023-04-15T09:51:01;4.10;;;3.12;;
73850;SDS011;62190;51.548;5.688;2023-04-15T09:53:28;5.05;;;2.77;;
73850;SDS011;62190;51.548;5.688;2023-04-15T09:55:59;3.67;;;2.40;;
73850;SDS011;62190;51.548;5.688;2023-04-15T09:58:28;4.90;;;3.35;;
73850;SDS011;62190;51.548;5.688;2023-04-15T10:00:58;4.75;;;3.27;;
73850;SDS011;62190;51.548;5.688;2023-04-15T10:03:27;3.30;;;2.37;;
73850;SDS011;62190;51.548;5.688;2023-04-15T10:05:56;4.90;;;3.35;;
73850;SDS011;62190;51.548;5.688;2023-04-15T10:08:26;5.20;;;3.70;;
73850;SDS011;62190;51.548;5.688;2023-04-15T10:10:54;4.75;;;3.42;;
73850;SDS011;62190;51.548;5.688;2023-04-15T10:13:22;6.95;;;3.85;;
73850;SDS011;62190;51.548;5.688;2023-04-15T10:16:06;5.22;;;3.30;;
73850;SDS011;62190;51.548;5.688;2023-04-15T10:18:38;3.67;;;2.20;;
73850;SDS011;62190;51.548;5.688;2023-04-15T10:21:10;4.03;;;1.82;;
73850;SDS011;62190;51.548;5.688;2023-04-15T10:23:48;5.58;;;2.35;;
73850;SDS011;62190;51.548;5.688;2023-04-15T10:26:12;3.92;;;2.75;;
73850;SDS011;62190;51.548;5.688;2023-04-15T10:28:40;3.98;;;2.37;;
73850;SDS011;62190;51.548;5.688;2023-04-15T10:31:08;3.42;;;2.20;;
73850;SDS011;62190;51.548;5.688;2023-04-15T10:33:40;3.08;;;1.35;;
73850;SDS011;62190;51.548;5.688;2023-04-15T10:36:08;2.98;;;1.67;;
73850;SDS011;62190;51.548;5.688;2023-04-15T10:38:37;3.52;;;1.87;;
73850;SDS011;62190;51.548;5.688;2023-04-15T10:43:53;3.95;;;2.20;;
73850;SDS011;62190;51.548;5.688;2023-04-15T10:46:23;3.55;;;2.10;;
73850;SDS011;62190;51.548;5.688;2023-04-15T10:48:52;5.40;;;2.40;;
73850;SDS011;62190;51.548;5.688;2023-04-15T10:51:26;5.60;;;2.17;;
73850;SDS011;62190;51.548;5.688;2023-04-15T10:53:56;3.65;;;2.20;;
73850;SDS011;62190;51.548;5.688;2023-04-15T10:56:27;3.98;;;1.98;;
73850;SDS011;62190;51.548;5.688;2023-04-15T10:58:57;5.45;;;1.80;;
73850;SDS011;62190;51.548;5.688;2023-04-15T11:12:58;2.30;;;1.65;;
73850;SDS011;62190;51.548;5.688;2023-04-15T11:15:40;2.47;;;1.60;;
73850;SDS011;62190;51.548;5.688;2023-04-15T11:18:16;3.50;;;1.70;;
73850;SDS011;62190;51.548;5.688;2023-04-15T11:20:46;3.02;;;2.10;;
73850;SDS011;62190;51.548;5.688;2023-04-15T11:23:26;3.77;;;2.20;;
73850;SDS011;62190;51.548;5.688;2023-04-15T11:25:59;3.50;;;1.77;;
73850;SDS011;62190;51.548;5.688;2023-04-15T11:28:29;2.77;;;1.75;;
73850;SDS011;62190;51.548;5.688;2023-04-15T11:31:02;3.98;;;2.25;;
73850;SDS011;62190;51.548;5.688;2023-04-15T11:33:35;3.52;;;1.80;;
73850;SDS011;62190;51.548;5.688;2023-04-15T11:36:04;3.75;;;1.67;;
73850;SDS011;62190;51.548;5.688;2023-04-15T11:38:32;3.50;;;1.57;;
73850;SDS011;62190;51.548;5.688;2023-04-15T11:41:00;5.10;;;1.60;;
73850;SDS011;62190;51.548;5.688;2023-04-15T11:43:27;2.67;;;1.82;;
73850;SDS011;62190;51.548;5.688;2023-04-15T11:45:59;2.85;;;1.70;;
73850;SDS011;62190;51.548;5.688;2023-04-15T11:48:34;4.12;;;2.00;;
73850;SDS011;62190;51.548;5.688;2023-04-15T11:50:59;4.28;;;1.77;;
73850;SDS011;62190;51.548;5.688;2023-04-15T11:53:41;2.58;;;1.67;;
73850;SDS011;62190;51.548;5.688;2023-04-15T11:56:19;2.50;;;1.47;;
73850;SDS011;62190;51.548;5.688;2023-04-15T11:58:48;3.20;;;2.05;;
73850;SDS011;62190;51.548;5.688;2023-04-15T12:01:17;3.92;;;1.65;;
73850;SDS011;62190;51.548;5.688;2023-04-15T12:03:45;3.05;;;1.72;;
73850;SDS011;62190;51.548;5.688;2023-04-15T12:06:22;2.77;;;1.40;;
73850;SDS011;62190;51.548;5.688;2023-04-15T12:08:55;2.87;;;1.60;;
73850;SDS011;62190;51.548;5.688;2023-04-15T12:14:10;4.40;;;1.60;;
73850;SDS011;62190;51.548;5.688;2023-04-15T12:16:39;2.65;;;1.32;;
73850;SDS011;62190;51.548;5.688;2023-04-15T12:19:12;1.47;;;1.12;;
73850;SDS011;62190;51.548;5.688;2023-04-15T12:21:41;2.62;;;1.65;;
73850;SDS011;62190;51.548;5.688;2023-04-15T12:24:12;2.02;;;1.17;;
73850;SDS011;62190;51.548;5.688;2023-04-15T12:26:43;2.87;;;1.90;;
73850;SDS011;62190;51.548;5.688;2023-04-15T12:29:15;3.85;;;1.72;;
73850;SDS011;62190;51.548;5.688;2023-04-15T12:31:52;2.72;;;1.87;;
73850;SDS011;62190;51.548;5.688;2023-04-15T12:34:16;2.92;;;1.65;;
73850;SDS011;62190;51.548;5.688;2023-04-15T12:36:44;2.40;;;1.32;;
73850;SDS011;62190;51.548;5.688;2023-04-15T12:39:13;2.55;;;1.45;;
73850;SDS011;62190;51.548;5.688;2023-04-15T12:41:40;3.25;;;1.20;;
73850;SDS011;62190;51.548;5.688;2023-04-15T12:44:08;3.20;;;1.30;;
73850;SDS011;62190;51.548;5.688;2023-04-15T12:46:35;3.47;;;2.10;;
73850;SDS011;62190;51.548;5.688;2023-04-15T12:49:03;2.72;;;1.42;;
73850;SDS011;62190;51.548;5.688;2023-04-15T12:51:30;3.47;;;1.50;;
73850;SDS011;62190;51.548;5.688;2023-04-15T12:53:58;2.42;;;1.60;;
73850;SDS011;62190;51.548;5.688;2023-04-15T12:56:25;2.70;;;1.82;;
73850;SDS011;62190;51.548;5.688;2023-04-15T12:58:52;2.55;;;1.87;;
73850;SDS011;62190;51.548;5.688;2023-04-15T13:01:20;3.77;;;1.50;;
73850;SDS011;62190;51.548;5.688;2023-04-15T13:03:47;3.77;;;1.85;;
73850;SDS011;62190;51.548;5.688;2023-04-15T13:06:15;2.85;;;1.77;;
73850;SDS011;62190;51.548;5.688;2023-04-15T13:08:42;4.22;;;1.75;;
73850;SDS011;62190;51.548;5.688;2023-04-15T13:11:10;4.65;;;1.42;;
73850;SDS011;62190;51.548;5.688;2023-04-15T13:13:37;2.35;;;1.12;;
73850;SDS011;62190;51.548;5.688;2023-04-15T13:16:07;1.98;;;0.93;;
73850;SDS011;62190;51.548;5.688;2023-04-15T13:18:34;2.98;;;1.77;;
73850;SDS011;62190;51.548;5.688;2023-04-15T13:21:01;2.75;;;1.42;;
73850;SDS011;62190;51.548;5.688;2023-04-15T13:23:28;2.52;;;1.75;;
73850;SDS011;62190;51.548;5.688;2023-04-15T13:25:56;2.47;;;1.62;;
73850;SDS011;62190;51.548;5.688;2023-04-15T13:28:23;3.90;;;1.25;;
73850;SDS011;62190;51.548;5.688;2023-04-15T13:30:50;13.58;;;1.52;;
73850;SDS011;62190;51.548;5.688;2023-04-15T13:33:18;4.75;;;1.67;;
73850;SDS011;62190;51.548;5.688;2023-04-15T13:35:45;2.75;;;1.75;;
73850;SDS011;62190;51.548;5.688;2023-04-15T13:38:12;2.30;;;1.65;;
73850;SDS011;62190;51.548;5.688;2023-04-15T13:40:40;2.92;;;1.72;;
73850;SDS011;62190;51.548;5.688;2023-04-15T13:43:07;2.58;;;1.47;;
73850;SDS011;62190;51.548;5.688;2023-04-15T13:45:34;2.00;;;1.10;;
73850;SDS011;62190;51.548;5.688;2023-04-15T13:48:02;2.85;;;1.82;;
73850;SDS011;62190;51.548;5.688;2023-04-15T13:50:29;2.72;;;1.60;;
73850;SDS011;62190;51.548;5.688;2023-04-15T13:52:56;2.92;;;1.67;;
73850;SDS011;62190;51.548;5.688;2023-04-15T13:55:25;3.80;;;1.50;;
73850;SDS011;62190;51.548;5.688;2023-04-15T13:57:53;4.55;;;1.65;;
73850;SDS011;62190;51.548;5.688;2023-04-15T14:00:20;3.02;;;1.42;;
73850;SDS011;62190;51.548;5.688;2023-04-15T14:02:47;3.42;;;1.90;;
73850;SDS011;62190;51.548;5.688;2023-04-15T14:05:15;4.47;;;1.52;;
73850;SDS011;62190;51.548;5.688;2023-04-15T14:07:42;2.17;;;1.00;;
73850;SDS011;62190;51.548;5.688;2023-04-15T14:10:09;3.45;;;1.17;;
73850;SDS011;62190;51.548;5.688;2023-04-15T14:12:36;4.22;;;1.17;;
73850;SDS011;62190;51.548;5.688;2023-04-15T14:15:04;1.70;;;0.93;;
73850;SDS011;62190;51.548;5.688;2023-04-15T14:17:32;2.87;;;1.20;;
73850;SDS011;62190;51.548;5.688;2023-04-15T14:19:59;4.42;;;1.37;;
73850;SDS011;62190;51.548;5.688;2023-04-15T14:22:27;2.58;;;1.10;;
73850;SDS011;62190;51.548;5.688;2023-04-15T14:24:54;2.90;;;1.10;;
73850;SDS011;62190;51.548;5.688;2023-04-15T14:27:21;2.25;;;1.10;;
73850;SDS011;62190;51.548;5.688;2023-04-15T14:29:49;1.77;;;1.25;;
73850;SDS011;62190;51.548;5.688;2023-04-15T14:32:18;1.22;;;0.95;;
73850;SDS011;62190;51.548;5.688;2023-04-15T14:34:45;1.02;;;0.60;;
73850;SDS011;62190;51.548;5.688;2023-04-15T14:37:12;4.78;;;0.65;;
73850;SDS011;62190;51.548;5.688;2023-04-15T14:39:40;3.02;;;0.80;;
73850;SDS011;62190;51.548;5.688;2023-04-15T14:42:08;1.42;;;0.70;;
73850;SDS011;62190;51.548;5.688;2023-04-15T14:44:36;1.10;;;0.80;;
73850;SDS011;62190;51.548;5.688;2023-04-15T14:47:03;2.35;;;0.78;;
73850;SDS011;62190;51.548;5.688;2023-04-15T14:49:31;2.30;;;0.90;;
73850;SDS011;62190;51.548;5.688;2023-04-15T14:51:58;2.12;;;1.30;;
73850;SDS011;62190;51.548;5.688;2023-04-15T14:54:25;1.50;;;0.65;;
73850;SDS011;62190;51.548;5.688;2023-04-15T14:56:53;0.93;;;0.50;;
73850;SDS011;62190;51.548;5.688;2023-04-15T14:59:22;2.45;;;0.70;;
73850;SDS011;62190;51.548;5.688;2023-04-15T15:01:49;0.78;;;0.40;;
73850;SDS011;62190;51.548;5.688;2023-04-15T15:04:16;2.45;;;0.75;;
73850;SDS011;62190;51.548;5.688;2023-04-15T15:06:44;1.77;;;0.60;;